sensor_id;sensor_type;location;lat;lon;timestamp;pressure;altitude;pressure_sealevel;temperature;humidity
35918;BME280;22011;59.912;30.300;2023-12-20T00:01:04;98494.66;;;3.59;67.29
35918;BME280;22011;59.912;30.300;2023-12-20T00:03:31;98497.13;;;3.61;66.57
35918;BME280;22011;59.912;30.300;2023-12-20T00:05:59;98511.47;;;3.58;66.32
35918;BME280;22011;59.912;30.300;2023-12-20T00:08:27;98504.22;;;3.60;66.20
35918;BME280;22011;59.912;30.300;2023-12-20T00:10:54;98500.56;;;3.61;65.84
35918;BME280;22011;59.912;30.300;2023-12-20T00:13:22;98512.41;;;3.66;66.01
35918;BME280;22011;59.912;30.300;2023-12-20T00:15:50;98517.50;;;3.67;66.70
35918;BME280;22011;59.912;30.300;2023-12-20T00:18:18;98503.03;;;3.63;66.63
35918;BME280;22011;59.912;30.300;2023-12-20T00:20:45;98509.59;;;3.67;66.20
35918;BME280;22011;59.912;30.300;2023-12-20T00:23:13;98505.97;;;3.68;66.23
35918;BME280;22011;59.912;30.300;2023-12-20T00:25:40;98515.97;;;3.73;66.50
35918;BME280;22011;59.912;30.300;2023-12-20T00:28:08;98519.88;;;3.77;66.15
35918;BME280;22011;59.912;30.300;2023-12-20T00:30:35;98508.19;;;3.79;66.18
35918;BME280;22011;59.912;30.300;2023-12-20T00:33:04;98496.47;;;3.82;66.44
35918;BME280;22011;59.912;30.300;2023-12-20T00:35:32;98497.34;;;3.74;65.82
35918;BME280;22011;59.912;30.300;2023-12-20T00:37:59;98493.72;;;3.75;66.47
35918;BME280;22011;59.912;30.300;2023-12-20T00:40:27;98491.28;;;3.74;66.39
35918;BME280;22011;59.912;30.300;2023-12-20T00:42:55;98473.00;;;3.72;66.02
35918;BME280;22011;59.912;30.300;2023-12-20T00:45:22;98472.38;;;3.70;65.94
35918;BME280;22011;59.912;30.300;2023-12-20T00:47:50;98477.00;;;3.68;66.04
35918;BME280;22011;59.912;30.300;2023-12-20T00:50:19;98469.09;;;3.68;65.98
35918;BME280;22011;59.912;30.300;2023-12-20T00:52:47;98466.81;;;3.65;66.65
35918;BME280;22011;59.912;30.300;2023-12-20T00:55:15;98473.44;;;3.61;66.27
35918;BME280;22011;59.912;30.300;2023-12-20T00:57:42;98472.97;;;3.57;66.15
35918;BME280;22011;59.912;30.300;2023-12-20T01:00:11;98468.50;;;3.58;66.13
35918;BME280;22011;59.912;30.300;2023-12-20T01:02:40;98462.53;;;3.64;67.06
35918;BME280;22011;59.912;30.300;2023-12-20T01:05:07;98455.47;;;3.65;66.95
35918;BME280;22011;59.912;30.300;2023-12-20T01:07:37;98457.38;;;3.71;66.55
35918;BME280;22011;59.912;30.300;2023-12-20T01:10:05;98450.47;;;3.70;66.37
35918;BME280;22011;59.912;30.300;2023-12-20T01:12:32;98442.75;;;3.68;66.15
35918;BME280;22011;59.912;30.300;2023-12-20T01:15:00;98447.56;;;3.65;66.51
35918;BME280;22011;59.912;30.300;2023-12-20T01:17:27;98433.47;;;3.57;66.11
35918;BME280;22011;59.912;30.300;2023-12-20T01:19:55;98440.09;;;3.53;66.61
35918;BME280;22011;59.912;30.300;2023-12-20T01:22:22;98462.44;;;3.57;66.36
35918;BME280;22011;59.912;30.300;2023-12-20T01:24:51;98465.34;;;3.63;66.13
35918;BME280;22011;59.912;30.300;2023-12-20T01:27:19;98447.28;;;3.59;66.16
35918;BME280;22011;59.912;30.300;2023-12-20T01:29:46;98448.91;;;3.60;65.62
35918;BME280;22011;59.912;30.300;2023-12-20T01:32:14;98455.47;;;3.65;65.38
35918;BME280;22011;59.912;30.300;2023-12-20T01:34:42;98446.22;;;3.69;65.35
35918;BME280;22011;59.912;30.300;2023-12-20T01:37:09;98444.56;;;3.68;64.87
35918;BME280;22011;59.912;30.300;2023-12-20T01:39:37;98448.84;;;3.69;65.28
35918;BME280;22011;59.912;30.300;2023-12-20T01:42:06;98445.22;;;3.70;65.29
35918;BME280;22011;59.912;30.300;2023-12-20T01:44:33;98441.94;;;3.68;65.32
35918;BME280;22011;59.912;30.300;2023-12-20T01:47:01;98429.41;;;3.70;65.48
35918;BME280;22011;59.912;30.300;2023-12-20T01:49:29;98431.88;;;3.71;64.98
35918;BME280;22011;59.912;30.300;2023-12-20T01:51:56;98436.97;;;3.73;65.16
35918;BME280;22011;59.912;30.300;2023-12-20T01:54:24;98425.16;;;3.69;65.28
35918;BME280;22011;59.912;30.300;2023-12-20T01:56:52;98426.56;;;3.56;65.67
35918;BME280;22011;59.912;30.300;2023-12-20T01:59:21;98426.22;;;3.59;65.38
35918;BME280;22011;59.912;30.300;2023-12-20T02:01:49;98426.69;;;3.63;65.60
35918;BME280;22011;59.912;30.300;2023-12-20T02:04:17;98424.03;;;3.63;65.31
35918;BME280;22011;59.912;30.300;2023-12-20T02:06:46;98416.78;;;3.65;65.26
35918;BME280;22011;59.912;30.300;2023-12-20T02:09:15;98425.69;;;3.64;64.57
35918;BME280;22011;59.912;30.300;2023-12-20T02:11:43;98427.13;;;3.67;65.00
35918;BME280;22011;59.912;30.300;2023-12-20T02:14:10;98422.88;;;3.66;65.24
35918;BME280;22011;59.912;30.300;2023-12-20T02:16:39;98429.31;;;3.63;65.26
35918;BME280;22011;59.912;30.300;2023-12-20T02:19:13;98415.88;;;3.73;65.87
35918;BME280;22011;59.912;30.300;2023-12-20T02:21:42;98406.72;;;3.69;65.21
35918;BME280;22011;59.912;30.300;2023-12-20T02:24:10;98411.06;;;3.61;64.90
35918;BME280;22011;59.912;30.300;2023-12-20T02:26:37;98412.69;;;3.63;64.97
35918;BME280;22011;59.912;30.300;2023-12-20T02:29:05;98414.69;;;3.60;64.80
35918;BME280;22011;59.912;30.300;2023-12-20T02:31:33;98406.16;;;3.58;65.08
35918;BME280;22011;59.912;30.300;2023-12-20T02:34:00;98416.03;;;3.56;64.87
35918;BME280;22011;59.912;30.300;2023-12-20T02:36:28;98395.97;;;3.55;64.77
35918;BME280;22011;59.912;30.300;2023-12-20T02:38:57;98408.41;;;3.61;64.86
35918;BME280;22011;59.912;30.300;2023-12-20T02:41:24;98410.41;;;3.59;64.36
35918;BME280;22011;59.912;30.300;2023-12-20T02:43:52;98404.50;;;3.57;64.72
35918;BME280;22011;59.912;30.300;2023-12-20T02:46:19;98405.69;;;3.55;64.97
35918;BME280;22011;59.912;30.300;2023-12-20T02:48:47;98401.22;;;3.55;65.16
35918;BME280;22011;59.912;30.300;2023-12-20T02:51:14;98406.84;;;3.52;65.26
35918;BME280;22011;59.912;30.300;2023-12-20T02:53:42;98403.56;;;3.50;64.97
35918;BME280;22011;59.912;30.300;2023-12-20T02:56:11;98405.84;;;3.53;65.80
35918;BME280;22011;59.912;30.300;2023-12-20T02:58:39;98412.47;;;3.49;64.79
35918;BME280;22011;59.912;30.300;2023-12-20T03:01:07;98410.19;;;3.46;65.40
35918;BME280;22011;59.912;30.300;2023-12-20T03:03:35;98413.34;;;3.42;65.32
35918;BME280;22011;59.912;30.300;2023-12-20T03:06:02;98402.66;;;3.43;65.06
35918;BME280;22011;59.912;30.300;2023-12-20T03:08:30;98397.22;;;3.45;65.56
35918;BME280;22011;59.912;30.300;2023-12-20T03:10:59;98398.66;;;3.47;66.05
35918;BME280;22011;59.912;30.300;2023-12-20T03:13:28;98400.66;;;3.45;65.20
35918;BME280;22011;59.912;30.300;2023-12-20T03:15:55;98397.56;;;3.42;64.78
35918;BME280;22011;59.912;30.300;2023-12-20T03:18:23;98403.66;;;3.42;65.37
35918;BME280;22011;59.912;30.300;2023-12-20T03:20:50;98412.53;;;3.41;64.85
35918;BME280;22011;59.912;30.300;2023-12-20T03:23:19;98406.91;;;3.44;65.06
35918;BME280;22011;59.912;30.300;2023-12-20T03:25:46;98408.56;;;3.45;64.77
35918;BME280;22011;59.912;30.300;2023-12-20T03:28:14;98405.56;;;3.48;64.94
35918;BME280;22011;59.912;30.300;2023-12-20T03:30:44;98410.13;;;3.54;64.81
35918;BME280;22011;59.912;30.300;2023-12-20T03:33:11;98418.03;;;3.54;64.78
35918;BME280;22011;59.912;30.300;2023-12-20T03:35:39;98407.78;;;3.59;64.70
35918;BME280;22011;59.912;30.300;2023-12-20T03:38:06;98416.31;;;3.61;64.51
35918;BME280;22011;59.912;30.300;2023-12-20T03:40:34;98410.53;;;3.66;64.47
35918;BME280;22011;59.912;30.300;2023-12-20T03:43:02;98420.88;;;3.68;64.45
35918;BME280;22011;59.912;30.300;2023-12-20T03:45:29;98403.72;;;3.72;63.83
35918;BME280;22011;59.912;30.300;2023-12-20T03:47:58;98408.28;;;3.78;64.29
35918;BME280;22011;59.912;30.300;2023-12-20T03:50:26;98411.25;;;3.75;63.98
35918;BME280;22011;59.912;30.300;2023-12-20T03:52:54;98400.09;;;3.73;63.98
35918;BME280;22011;59.912;30.300;2023-12-20T03:55:21;98414.06;;;3.73;63.51
35918;BME280;22011;59.912;30.300;2023-12-20T03:57:49;98392.19;;;3.73;64.14
35918;BME280;22011;59.912;30.300;2023-12-20T04:00:17;98404.53;;;3.72;63.56
35918;BME280;22011;59.912;30.300;2023-12-20T04:02:44;98399.09;;;3.74;63.78
35918;BME280;22011;59.912;30.300;2023-12-20T04:05:13;98403.00;;;3.78;63.39
35918;BME280;22011;59.912;30.300;2023-12-20T04:07:41;98408.44;;;3.76;63.31
35918;BME280;22011;59.912;30.300;2023-12-20T04:10:08;98405.00;;;3.76;63.04
35918;BME280;22011;59.912;30.300;2023-12-20T04:12:36;98411.25;;;3.75;63.22
35918;BME280;22011;59.912;30.300;2023-12-20T04:15:04;98416.00;;;3.79;62.80
35918;BME280;22011;59.912;30.300;2023-12-20T04:17:35;98418.63;;;3.79;62.99
35918;BME280;22011;59.912;30.300;2023-12-20T04:20:03;98413.19;;;3.81;62.62
35918;BME280;22011;59.912;30.300;2023-12-20T04:22:32;98427.81;;;3.83;63.23
35918;BME280;22011;59.912;30.300;2023-12-20T04:25:00;98424.53;;;3.81;63.59
35918;BME280;22011;59.912;30.300;2023-12-20T04:27:28;98421.91;;;3.81;63.14
35918;BME280;22011;59.912;30.300;2023-12-20T04:29:55;98417.44;;;3.82;63.47
35918;BME280;22011;59.912;30.300;2023-12-20T04:32:23;98419.09;;;3.83;63.05
35918;BME280;22011;59.912;30.300;2023-12-20T04:34:50;98427.63;;;3.85;63.06
35918;BME280;22011;59.912;30.300;2023-12-20T04:37:18;98423.53;;;3.82;62.85
35918;BME280;22011;59.912;30.300;2023-12-20T04:39:47;98424.81;;;3.86;62.59
35918;BME280;22011;59.912;30.300;2023-12-20T04:42:14;98424.34;;;3.83;63.78
35918;BME280;22011;59.912;30.300;2023-12-20T04:44:42;98418.63;;;3.79;63.11
35918;BME280;22011;59.912;30.300;2023-12-20T04:47:10;98420.25;;;3.80;63.04
35918;BME280;22011;59.912;30.300;2023-12-20T04:49:37;98431.25;;;3.84;63.97
35918;BME280;22011;59.912;30.300;2023-12-20T04:52:05;98424.34;;;3.83;63.62
35918;BME280;22011;59.912;30.300;2023-12-20T04:54:33;98420.09;;;3.82;62.85
35918;BME280;22011;59.912;30.300;2023-12-20T04:57:02;98416.19;;;3.78;62.68
35918;BME280;22011;59.912;30.300;2023-12-20T04:59:29;98420.81;;;3.76;63.56
35918;BME280;22011;59.912;30.300;2023-12-20T05:01:57;98438.25;;;3.77;63.76
35918;BME280;22011;59.912;30.300;2023-12-20T05:04:24;98443.34;;;3.78;62.95
35918;BME280;22011;59.912;30.300;2023-12-20T05:06:52;98440.34;;;3.81;62.70
35918;BME280;22011;59.912;30.300;2023-12-20T05:09:20;98449.69;;;3.84;62.59
35918;BME280;22011;59.912;30.300;2023-12-20T05:11:47;98454.97;;;3.84;62.64
35918;BME280;22011;59.912;30.300;2023-12-20T05:14:16;98455.91;;;3.91;62.43
35918;BME280;22011;59.912;30.300;2023-12-20T05:16:44;98445.53;;;3.89;61.83
35918;BME280;22011;59.912;30.300;2023-12-20T05:19:11;98461.81;;;3.93;62.16
35918;BME280;22011;59.912;30.300;2023-12-20T05:21:40;98460.28;;;3.99;61.86
35918;BME280;22011;59.912;30.300;2023-12-20T05:24:08;98457.00;;;3.97;61.91
35918;BME280;22011;59.912;30.300;2023-12-20T05:26:35;98462.44;;;3.95;62.04
35918;BME280;22011;59.912;30.300;2023-12-20T05:29:03;98457.00;;;3.97;61.98
35918;BME280;22011;59.912;30.300;2023-12-20T05:31:32;98453.81;;;4.01;62.53
35918;BME280;22011;59.912;30.300;2023-12-20T05:34:00;98458.63;;;3.98;61.56
35918;BME280;22011;59.912;30.300;2023-12-20T05:36:27;98452.66;;;4.04;61.48
35918;BME280;22011;59.912;30.300;2023-12-20T05:38:55;98452.47;;;4.05;61.70
35918;BME280;22011;59.912;30.300;2023-12-20T05:41:22;98451.09;;;4.09;62.12
35918;BME280;22011;59.912;30.300;2023-12-20T05:43:50;98449.75;;;4.13;61.52
35918;BME280;22011;59.912;30.300;2023-12-20T05:46:17;98445.94;;;4.16;61.10
35918;BME280;22011;59.912;30.300;2023-12-20T05:48:46;98446.72;;;4.16;61.23
35918;BME280;22011;59.912;30.300;2023-12-20T05:51:14;98447.38;;;4.18;61.64
35918;BME280;22011;59.912;30.300;2023-12-20T05:53:42;98450.81;;;4.19;60.82
35918;BME280;22011;59.912;30.300;2023-12-20T05:56:10;98449.34;;;4.16;61.13
35918;BME280;22011;59.912;30.300;2023-12-20T05:58:38;98444.09;;;4.16;61.44
35918;BME280;22011;59.912;30.300;2023-12-20T06:01:06;98442.09;;;4.18;61.24
35918;BME280;22011;59.912;30.300;2023-12-20T06:03:34;98441.53;;;4.23;61.28
35918;BME280;22011;59.912;30.300;2023-12-20T06:06:06;98456.81;;;4.27;62.01
35918;BME280;22011;59.912;30.300;2023-12-20T06:08:34;98442.72;;;4.20;60.90
35918;BME280;22011;59.912;30.300;2023-12-20T06:11:01;98454.72;;;4.23;61.32
35918;BME280;22011;59.912;30.300;2023-12-20T06:13:29;98447.38;;;4.18;61.68
35918;BME280;22011;59.912;30.300;2023-12-20T06:15:57;98444.28;;;4.15;62.19
35918;BME280;22011;59.912;30.300;2023-12-20T06:18:24;98467.03;;;4.16;62.05
35918;BME280;22011;59.912;30.300;2023-12-20T06:20:52;98446.19;;;4.21;61.12
35918;BME280;22011;59.912;30.300;2023-12-20T06:23:21;98450.09;;;4.25;61.34
35918;BME280;22011;59.912;30.300;2023-12-20T06:25:48;98456.53;;;4.22;60.72
35918;BME280;22011;59.912;30.300;2023-12-20T06:28:16;98463.09;;;4.26;61.20
35918;BME280;22011;59.912;30.300;2023-12-20T06:30:43;98463.38;;;4.32;61.14
35918;BME280;22011;59.912;30.300;2023-12-20T06:33:13;98469.91;;;4.36;60.54
35918;BME280;22011;59.912;30.300;2023-12-20T06:35:40;98465.63;;;4.35;60.40
35918;BME280;22011;59.912;30.300;2023-12-20T06:38:08;98470.09;;;4.34;61.11
35918;BME280;22011;59.912;30.300;2023-12-20T06:40:37;98473.00;;;4.39;60.79
35918;BME280;22011;59.912;30.300;2023-12-20T06:43:04;98474.72;;;4.32;61.47
35918;BME280;22011;59.912;30.300;2023-12-20T06:45:38;98471.81;;;4.42;61.57
35918;BME280;22011;59.912;30.300;2023-12-20T06:48:07;98465.63;;;4.35;61.19
35918;BME280;22011;59.912;30.300;2023-12-20T06:50:34;98465.28;;;4.38;60.74
35918;BME280;22011;59.912;30.300;2023-12-20T06:53:06;98468.09;;;4.36;61.08
35918;BME280;22011;59.912;30.300;2023-12-20T06:55:35;98474.81;;;4.39;61.59
35918;BME280;22011;59.912;30.300;2023-12-20T06:58:05;98463.72;;;4.43;60.67
35918;BME280;22011;59.912;30.300;2023-12-20T07:00:33;98476.47;;;4.40;60.22
35918;BME280;22011;59.912;30.300;2023-12-20T07:03:00;98475.47;;;4.41;60.16
35918;BME280;22011;59.912;30.300;2023-12-20T07:05:28;98473.81;;;4.40;60.26
35918;BME280;22011;59.912;30.300;2023-12-20T07:07:56;98478.38;;;4.46;60.56
35918;BME280;22011;59.912;30.300;2023-12-20T07:10:23;98477.00;;;4.50;60.30
35918;BME280;22011;59.912;30.300;2023-12-20T07:12:51;98472.66;;;4.42;60.71
35918;BME280;22011;59.912;30.300;2023-12-20T07:15:22;98488.66;;;4.41;61.49
35918;BME280;22011;59.912;30.300;2023-12-20T07:17:50;98476.28;;;4.41;60.42
35918;BME280;22011;59.912;30.300;2023-12-20T07:20:17;98490.28;;;4.42;60.43
35918;BME280;22011;59.912;30.300;2023-12-20T07:22:45;98493.19;;;4.47;60.38
35918;BME280;22011;59.912;30.300;2023-12-20T07:25:12;98490.84;;;4.52;60.77
35918;BME280;22011;59.912;30.300;2023-12-20T07:27:40;98480.56;;;4.57;59.92
35918;BME280;22011;59.912;30.300;2023-12-20T07:30:08;98507.56;;;4.59;60.42
35918;BME280;22011;59.912;30.300;2023-12-20T07:32:38;98503.00;;;4.53;60.57
35918;BME280;22011;59.912;30.300;2023-12-20T07:35:06;98516.56;;;4.50;60.27
35918;BME280;22011;59.912;30.300;2023-12-20T07:37:34;98511.66;;;4.47;60.20
35918;BME280;22011;59.912;30.300;2023-12-20T07:40:01;98515.09;;;4.47;60.79
35918;BME280;22011;59.912;30.300;2023-12-20T07:42:29;98524.00;;;4.46;61.79
35918;BME280;22011;59.912;30.300;2023-12-20T07:44:57;98527.38;;;4.40;61.21
35918;BME280;22011;59.912;30.300;2023-12-20T07:47:24;98527.38;;;4.40;60.89
35918;BME280;22011;59.912;30.300;2023-12-20T07:49:52;98529.66;;;4.43;61.16
35918;BME280;22011;59.912;30.300;2023-12-20T07:52:20;98537.75;;;4.42;60.69
35918;BME280;22011;59.912;30.300;2023-12-20T07:54:48;98536.03;;;4.49;60.47
35918;BME280;22011;59.912;30.300;2023-12-20T07:57:16;98545.44;;;4.28;60.93
35918;BME280;22011;59.912;30.300;2023-12-20T07:59:43;98550.06;;;4.12;61.58
35918;BME280;22011;59.912;30.300;2023-12-20T08:02:11;98551.06;;;4.11;61.85
35918;BME280;22011;59.912;30.300;2023-12-20T08:04:39;98556.63;;;4.16;61.85
35918;BME280;22011;59.912;30.300;2023-12-20T08:07:08;98566.59;;;4.20;62.17
35918;BME280;22011;59.912;30.300;2023-12-20T08:09:36;98562.69;;;4.16;61.96
35918;BME280;22011;59.912;30.300;2023-12-20T08:12:04;98577.25;;;4.12;62.18
35918;BME280;22011;59.912;30.300;2023-12-20T08:14:31;98571.69;;;4.07;62.87
35918;BME280;22011;59.912;30.300;2023-12-20T08:16:59;98575.13;;;4.08;62.97
35918;BME280;22011;59.912;30.300;2023-12-20T08:19:26;98587.50;;;4.07;62.68
35918;BME280;22011;59.912;30.300;2023-12-20T08:21:54;98581.28;;;4.00;62.06
35918;BME280;22011;59.912;30.300;2023-12-20T08:24:23;98589.38;;;3.99;62.39
35918;BME280;22011;59.912;30.300;2023-12-20T08:26:50;98574.91;;;3.94;62.68
35918;BME280;22011;59.912;30.300;2023-12-20T08:29:18;98589.09;;;3.93;62.33
35918;BME280;22011;59.912;30.300;2023-12-20T08:31:52;98586.84;;;4.05;63.78
35918;BME280;22011;59.912;30.300;2023-12-20T08:34:19;98586.22;;;4.03;63.38
35918;BME280;22011;59.912;30.300;2023-12-20T08:36:47;98593.41;;;4.09;62.79
35918;BME280;22011;59.912;30.300;2023-12-20T08:39:15;98595.06;;;4.10;62.96
35918;BME280;22011;59.912;30.300;2023-12-20T08:41:44;98598.69;;;4.09;62.08
35918;BME280;22011;59.912;30.300;2023-12-20T08:44:11;98597.03;;;4.08;62.05
35918;BME280;22011;59.912;30.300;2023-12-20T08:46:39;98587.50;;;4.07;62.36
35918;BME280;22011;59.912;30.300;2023-12-20T08:49:06;98602.50;;;4.07;62.81
35918;BME280;22011;59.912;30.300;2023-12-20T08:51:37;98604.47;;;4.05;62.10
35918;BME280;22011;59.912;30.300;2023-12-20T08:54:07;98599.38;;;4.03;62.44
35918;BME280;22011;59.912;30.300;2023-12-20T08:56:34;98609.56;;;4.06;62.94
35918;BME280;22011;59.912;30.300;2023-12-20T08:59:03;98610.03;;;4.10;62.62
35918;BME280;22011;59.912;30.300;2023-12-20T09:01:31;98614.50;;;4.09;62.47
35918;BME280;22011;59.912;30.300;2023-12-20T09:03:58;98619.41;;;4.12;61.81
35918;BME280;22011;59.912;30.300;2023-12-20T09:06:26;98616.31;;;4.09;62.03
35918;BME280;22011;59.912;30.300;2023-12-20T09:08:53;98637.56;;;4.07;62.07
35918;BME280;22011;59.912;30.300;2023-12-20T09:11:21;98636.22;;;4.11;62.75
35918;BME280;22011;59.912;30.300;2023-12-20T09:13:49;98632.25;;;4.15;62.17
35918;BME280;22011;59.912;30.300;2023-12-20T09:16:17;98639.13;;;4.16;62.61
35918;BME280;22011;59.912;30.300;2023-12-20T09:18:45;98626.84;;;4.09;62.18
35918;BME280;22011;59.912;30.300;2023-12-20T09:21:12;98639.22;;;4.08;62.40
35918;BME280;22011;59.912;30.300;2023-12-20T09:23:40;98637.38;;;4.09;62.57
35918;BME280;22011;59.912;30.300;2023-12-20T09:26:08;98629.66;;;4.07;62.79
35918;BME280;22011;59.912;30.300;2023-12-20T09:28:35;98653.50;;;4.14;62.91
35918;BME280;22011;59.912;30.300;2023-12-20T09:31:04;98646.22;;;4.16;62.72
35918;BME280;22011;59.912;30.300;2023-12-20T09:33:34;98647.84;;;4.17;63.16
35918;BME280;22011;59.912;30.300;2023-12-20T09:36:01;98664.56;;;4.09;63.56
35918;BME280;22011;59.912;30.300;2023-12-20T09:38:29;98659.63;;;4.06;63.38
35918;BME280;22011;59.912;30.300;2023-12-20T09:40:57;98667.53;;;4.06;63.94
35918;BME280;22011;59.912;30.300;2023-12-20T09:43:24;98665.91;;;4.05;63.45
35918;BME280;22011;59.912;30.300;2023-12-20T09:46:00;98666.50;;;4.15;63.94
35918;BME280;22011;59.912;30.300;2023-12-20T09:48:30;98681.19;;;4.10;64.58
35918;BME280;22011;59.912;30.300;2023-12-20T09:50:59;98680.19;;;4.11;63.74
35918;BME280;22011;59.912;30.300;2023-12-20T09:53:28;98691.09;;;4.08;64.69
35918;BME280;22011;59.912;30.300;2023-12-20T09:55:58;98690.91;;;4.09;64.50
35918;BME280;22011;59.912;30.300;2023-12-20T09:58:26;98696.38;;;4.08;64.02
35918;BME280;22011;59.912;30.300;2023-12-20T10:00:55;98696.84;;;4.11;63.82
35918;BME280;22011;59.912;30.300;2023-12-20T10:03:25;98709.09;;;4.19;63.81
35918;BME280;22011;59.912;30.300;2023-12-20T10:05:54;98710.88;;;4.26;63.26
35918;BME280;22011;59.912;30.300;2023-12-20T10:08:25;98715.78;;;4.30;63.59
35918;BME280;22011;59.912;30.300;2023-12-20T10:10:53;98716.78;;;4.28;63.60
35918;BME280;22011;59.912;30.300;2023-12-20T10:13:21;98714.84;;;4.22;63.28
35918;BME280;22011;59.912;30.300;2023-12-20T10:15:49;98710.28;;;4.16;63.33
35918;BME280;22011;59.912;30.300;2023-12-20T10:18:17;98727.56;;;4.19;63.51
35918;BME280;22011;59.912;30.300;2023-12-20T10:20:45;98722.47;;;4.17;63.19
35918;BME280;22011;59.912;30.300;2023-12-20T10:23:12;98727.03;;;4.23;63.47
35918;BME280;22011;59.912;30.300;2023-12-20T10:25:41;98727.03;;;4.23;63.82
35918;BME280;22011;59.912;30.300;2023-12-20T10:28:11;98739.53;;;4.30;63.58
35918;BME280;22011;59.912;30.300;2023-12-20T10:30:39;98742.47;;;4.35;63.02
35918;BME280;22011;59.912;30.300;2023-12-20T10:33:07;98743.44;;;4.34;63.11
35918;BME280;22011;59.912;30.300;2023-12-20T10:35:36;98740.63;;;4.35;63.43
35918;BME280;22011;59.912;30.300;2023-12-20T10:38:04;98750.03;;;4.38;63.51
35918;BME280;22011;59.912;30.300;2023-12-20T10:40:34;98752.66;;;4.38;63.73
35918;BME280;22011;59.912;30.300;2023-12-20T10:43:04;98752.34;;;4.33;63.58
35918;BME280;22011;59.912;30.300;2023-12-20T10:45:32;98748.44;;;4.28;63.94
35918;BME280;22011;59.912;30.300;2023-12-20T10:47:59;98752.69;;;4.30;63.77
35918;BME280;22011;59.912;30.300;2023-12-20T10:50:32;98764.53;;;4.34;63.00
35918;BME280;22011;59.912;30.300;2023-12-20T10:53:00;98763.72;;;4.33;62.88
35918;BME280;22011;59.912;30.300;2023-12-20T10:55:28;98769.34;;;4.30;63.50
35918;BME280;22011;59.912;30.300;2023-12-20T10:58:09;98777.69;;;4.42;64.17
35918;BME280;22011;59.912;30.300;2023-12-20T11:00:39;98775.13;;;4.25;64.47
35918;BME280;22011;59.912;30.300;2023-12-20T11:03:09;98784.38;;;4.21;64.23
35918;BME280;22011;59.912;30.300;2023-12-20T11:05:42;98781.69;;;4.30;64.69
35918;BME280;22011;59.912;30.300;2023-12-20T11:08:16;98792.75;;;4.25;64.47
35918;BME280;22011;59.912;30.300;2023-12-20T11:10:55;98792.59;;;4.26;64.34
35918;BME280;22011;59.912;30.300;2023-12-20T11:13:31;98802.44;;;4.33;64.06
35918;BME280;22011;59.912;30.300;2023-12-20T11:16:03;98800.63;;;4.33;63.92
35918;BME280;22011;59.912;30.300;2023-12-20T11:18:32;98806.38;;;4.37;63.62
35918;BME280;22011;59.912;30.300;2023-12-20T11:21:01;98819.38;;;4.38;63.33
35918;BME280;22011;59.912;30.300;2023-12-20T11:23:30;98811.31;;;4.40;63.65
35918;BME280;22011;59.912;30.300;2023-12-20T11:25:59;98822.19;;;4.37;63.41
35918;BME280;22011;59.912;30.300;2023-12-20T11:28:28;98826.19;;;4.33;64.17
35918;BME280;22011;59.912;30.300;2023-12-20T11:30:58;98828.16;;;4.31;64.83
35918;BME280;22011;59.912;30.300;2023-12-20T11:33:29;98838.41;;;4.25;64.83
35918;BME280;22011;59.912;30.300;2023-12-20T11:35:57;98833.13;;;4.25;64.30
35918;BME280;22011;59.912;30.300;2023-12-20T11:38:26;98836.75;;;4.24;64.05
35918;BME280;22011;59.912;30.300;2023-12-20T11:40:54;98838.56;;;4.24;64.13
35918;BME280;22011;59.912;30.300;2023-12-20T11:43:35;98834.88;;;4.41;64.43
35918;BME280;22011;59.912;30.300;2023-12-20T11:46:03;98838.53;;;4.32;63.21
35918;BME280;22011;59.912;30.300;2023-12-20T11:48:34;98842.94;;;4.40;63.33
35918;BME280;22011;59.912;30.300;2023-12-20T11:51:02;98845.25;;;4.43;63.78
35918;BME280;22011;59.912;30.300;2023-12-20T11:53:30;98847.25;;;4.33;63.80
35918;BME280;22011;59.912;30.300;2023-12-20T11:56:00;98846.78;;;4.29;63.20
35918;BME280;22011;59.912;30.300;2023-12-20T11:58:29;98835.41;;;4.28;63.34
35918;BME280;22011;59.912;30.300;2023-12-20T12:00:58;98847.59;;;4.30;63.04
35918;BME280;22011;59.912;30.300;2023-12-20T12:03:27;98845.31;;;4.26;63.28
35918;BME280;22011;59.912;30.300;2023-12-20T12:05:55;98847.31;;;4.24;63.61
35918;BME280;22011;59.912;30.300;2023-12-20T12:08:22;98857.19;;;4.22;64.06
35918;BME280;22011;59.912;30.300;2023-12-20T12:10:50;98850.94;;;4.23;64.26
35918;BME280;22011;59.912;30.300;2023-12-20T12:13:18;98849.28;;;4.22;63.45
35918;BME280;22011;59.912;30.300;2023-12-20T12:15:45;98853.91;;;4.20;63.45
35918;BME280;22011;59.912;30.300;2023-12-20T12:18:17;98857.50;;;4.27;64.63
35918;BME280;22011;59.912;30.300;2023-12-20T12:20:44;98857.19;;;4.22;63.61
35918;BME280;22011;59.912;30.300;2023-12-20T12:23:12;98869.56;;;4.22;63.57
35918;BME280;22011;59.912;30.300;2023-12-20T12:25:39;98869.72;;;4.20;64.67
35918;BME280;22011;59.912;30.300;2023-12-20T12:28:07;98876.97;;;4.18;64.57
35918;BME280;22011;59.912;30.300;2023-12-20T12:30:34;98875.81;;;4.21;64.21
35918;BME280;22011;59.912;30.300;2023-12-20T12:33:03;98884.38;;;4.23;64.50
35918;BME280;22011;59.912;30.300;2023-12-20T12:35:32;98888.00;;;4.22;64.48
35918;BME280;22011;59.912;30.300;2023-12-20T12:38:01;98894.00;;;4.16;64.51
35918;BME280;22011;59.912;30.300;2023-12-20T12:40:29;98900.88;;;4.17;64.93
35918;BME280;22011;59.912;30.300;2023-12-20T12:42:56;98905.31;;;4.16;65.13
35918;BME280;22011;59.912;30.300;2023-12-20T12:45:34;98908.59;;;4.18;64.51
35918;BME280;22011;59.912;30.300;2023-12-20T12:48:02;98915.19;;;4.22;64.78
35918;BME280;22011;59.912;30.300;2023-12-20T12:50:31;98908.28;;;4.21;64.24
35918;BME280;22011;59.912;30.300;2023-12-20T12:52:59;98913.88;;;4.18;64.32
35918;BME280;22011;59.912;30.300;2023-12-20T12:55:26;98917.50;;;4.17;64.31
35918;BME280;22011;59.912;30.300;2023-12-20T12:57:54;98925.63;;;4.16;64.26
35918;BME280;22011;59.912;30.300;2023-12-20T13:00:22;98932.50;;;4.17;63.91
35918;BME280;22011;59.912;30.300;2023-12-20T13:02:50;98928.25;;;4.16;64.02
35918;BME280;22011;59.912;30.300;2023-12-20T13:05:18;98928.53;;;4.21;64.32